Time;durP1;ratioP1;P1;durP2;ratioP2;P2;SDS_P1;SDS_P2;PMS_P1;PMS_P2;Temp;Humidity;BMP_temperature;BMP_pressure;BME280_temperature;BME280_humidity;BME280_pressure;Samples;Min_cycle;Max_cycle;Signal;HPM_P1;HPM_P2
2023/08/20 00:01:09;;;;;;;;;;;21.90;75.20;;;;;;5093035;28;20719;-65
2023/08/20 00:03:34;;;;;;;;;;;21.90;75.20;;;;;;5092821;28;19932;-65
2023/08/20 00:06:00;;;;;;;;;;;21.90;75.20;;;;;;5074801;28;19990;-65
2023/08/20 00:08:25;;;;;;;;;;;21.90;75.20;;;;;;5091609;28;20009;-66
2023/08/20 00:10:51;;;;;;;;;;;21.90;75.20;;;;;;5092879;28;19967;-69
2023/08/20 00:13:16;;;;;;;;;;;21.80;75.10;;;;;;5091903;28;20451;-65
2023/08/20 00:15:42;;;;;;;;;;;21.90;75.20;;;;;;5091690;28;19989;-65
2023/08/20 00:18:08;;;;;;;;;;;21.80;75.10;;;;;;5092836;28;19928;-66
2023/08/20 00:20:34;;;;;;;;;;;21.90;75.20;;;;;;5091454;28;19931;-65
2023/08/20 00:22:59;;;;;;;;;;;21.90;75.20;;;;;;5091431;28;20128;-65
2023/08/20 00:25:25;;;;;;;;;;;21.90;75.20;;;;;;5091445;28;19959;-65
2023/08/20 00:27:50;;;;;;;;;;;21.80;75.10;;;;;;5091637;28;19924;-65
2023/08/20 00:30:16;;;;;;;;;;;21.90;75.20;;;;;;5091598;28;19920;-69
2023/08/20 00:32:41;;;;;;;;;;;21.80;75.20;;;;;;5091251;28;20287;-65
2023/08/20 00:35:07;;;;;;;;;;;21.80;75.10;;;;;;5092661;28;19920;-65
2023/08/20 00:37:33;;;;;;;;;;;21.80;75.10;;;;;;5091542;28;20322;-65
2023/08/20 00:39:59;;;;;;;;;;;21.80;75.10;;;;;;5091176;28;19951;-65
2023/08/20 00:42:26;;;;;;;;;;;21.80;75.10;;;;;;5092642;28;19927;-66
2023/08/20 00:44:52;;;;;;;;;;;21.80;75.10;;;;;;5091215;28;19924;-65
2023/08/20 00:47:18;;;;;;;;;;;21.80;75.10;;;;;;5092397;28;19927;-65
2023/08/20 00:49:43;;;;;;;;;;;21.80;75.10;;;;;;5091494;28;19926;-65
2023/08/20 00:52:10;;;;;;;;;;;21.80;75.10;;;;;;5092499;28;19946;-66
2023/08/20 00:54:36;;;;;;;;;;;21.80;75.10;;;;;;5091108;28;19920;-65
2023/08/20 00:57:02;;;;;;;;;;;21.80;75.10;;;;;;5091373;28;19951;-65
2023/08/20 00:59:29;;;;;;;;;;;21.80;75.10;;;;;;5091405;28;20016;-65
2023/08/20 01:01:55;;;;;;;;;;;21.80;75.10;;;;;;5090948;28;19920;-65
2023/08/20 01:04:20;;;;;;;;;;;21.70;75.00;;;;;;5091036;28;19943;-65
2023/08/20 01:06:51;;;;;;;;;;;21.70;75.10;;;;;;5090839;28;19954;-66
2023/08/20 01:09:23;;;;;;;;;;;21.70;75.10;;;;;;5091026;28;19920;-65
2023/08/20 01:11:51;;;;;;;;;;;21.70;75.00;;;;;;5090912;28;19927;-69
2023/08/20 01:14:17;;;;;;;;;;;21.70;75.10;;;;;;5091306;28;19943;-65
2023/08/20 01:16:43;;;;;;;;;;;21.70;75.00;;;;;;5090777;28;19920;-66
2023/08/20 01:19:11;;;;;;;;;;;21.70;75.00;;;;;;5090942;28;19930;-65
2023/08/20 01:21:39;;;;;;;;;;;21.70;75.00;;;;;;5092131;28;19924;-65
2023/08/20 01:24:11;;;;;;;;;;;21.70;75.00;;;;;;5092281;28;19973;-68
2023/08/20 01:26:56;;;;;;;;;;;21.60;75.00;;;;;;5092040;28;20303;-65
2023/08/20 01:29:22;;;;;;;;;;;21.60;74.90;;;;;;5090905;28;19920;-65
2023/08/20 01:31:48;;;;;;;;;;;21.60;74.90;;;;;;5091639;28;19943;-65
2023/08/20 01:34:13;;;;;;;;;;;21.70;75.00;;;;;;5094903;28;19926;-65
2023/08/20 01:36:39;;;;;;;;;;;21.70;75.00;;;;;;5094535;28;19920;-66
2023/08/20 01:39:04;;;;;;;;;;;21.60;74.90;;;;;;5094833;28;19920;-65
2023/08/20 01:41:30;;;;;;;;;;;21.60;75.00;;;;;;5095730;28;20287;-65
2023/08/20 01:43:59;;;;;;;;;;;21.60;74.90;;;;;;5094657;28;19920;-65
2023/08/20 01:46:24;;;;;;;;;;;21.60;74.90;;;;;;5094093;28;19989;-65
2023/08/20 01:48:50;;;;;;;;;;;21.60;74.90;;;;;;5094184;28;20005;-69
2023/08/20 01:51:15;;;;;;;;;;;21.60;74.90;;;;;;5094611;28;19927;-65
2023/08/20 01:53:41;;;;;;;;;;;21.60;75.00;;;;;;5095426;28;20393;-69
2023/08/20 01:56:14;;;;;;;;;;;21.60;74.90;;;;;;5094203;28;19927;-65
2023/08/20 01:58:39;;;;;;;;;;;21.60;75.00;;;;;;5094329;28;19927;-65
2023/08/20 02:01:05;;;;;;;;;;;21.50;74.80;;;;;;5094074;28;19920;-65
2023/08/20 02:03:31;;;;;;;;;;;21.60;74.90;;;;;;5094219;28;19920;-65
2023/08/20 02:05:56;;;;;;;;;;;21.60;74.90;;;;;;5095364;28;20386;-70
2023/08/20 02:08:22;;;;;;;;;;;21.60;74.90;;;;;;5094119;28;20394;-65
2023/08/20 02:10:48;;;;;;;;;;;21.50;74.80;;;;;;5093918;28;19920;-65
2023/08/20 02:13:13;;;;;;;;;;;21.50;74.80;;;;;;5128264;27;19926;-65
2023/08/20 02:15:39;;;;;;;;;;;21.50;74.80;;;;;;5094997;28;19920;-65
2023/08/20 02:18:05;;;;;;;;;;;21.50;74.80;;;;;;5094998;28;20006;-65
2023/08/20 02:20:30;;;;;;;;;;;21.50;74.90;;;;;;5095212;28;20355;-65
2023/08/20 02:22:56;;;;;;;;;;;21.50;74.90;;;;;;5095003;28;20393;-65
2023/08/20 02:25:22;;;;;;;;;;;21.50;74.80;;;;;;5093601;28;19924;-65
2023/08/20 02:27:48;;;;;;;;;;;21.50;74.80;;;;;;5094921;28;19963;-65
2023/08/20 02:30:13;;;;;;;;;;;21.50;74.80;;;;;;5093675;28;19994;-69
2023/08/20 02:32:39;;;;;;;;;;;21.50;74.80;;;;;;5094724;28;19945;-65
2023/08/20 02:35:05;;;;;;;;;;;21.50;74.80;;;;;;5094868;28;20010;-65
2023/08/20 02:37:31;;;;;;;;;;;21.50;74.80;;;;;;5093872;28;19920;-65
2023/08/20 02:39:56;;;;;;;;;;;21.40;74.70;;;;;;5093359;28;19921;-65
2023/08/20 02:42:22;;;;;;;;;;;21.50;74.80;;;;;;5094451;28;19927;-65
2023/08/20 02:44:47;;;;;;;;;;;21.40;74.70;;;;;;5098073;28;19975;-65
2023/08/20 02:47:13;;;;;;;;;;;21.40;74.70;;;;;;5096639;28;19924;-65
2023/08/20 02:49:38;;;;;;;;;;;21.40;74.70;;;;;;5114954;28;20134;-65
2023/08/20 02:52:04;;;;;;;;;;;21.40;74.70;;;;;;5096821;28;19942;-65
2023/08/20 02:54:31;;;;;;;;;;;21.40;74.70;;;;;;5114764;28;19924;-65
2023/08/20 02:56:58;;;;;;;;;;;21.40;74.70;;;;;;5114749;28;20283;-65
2023/08/20 02:59:23;;;;;;;;;;;21.40;74.70;;;;;;5130703;27;19926;-70
2023/08/20 03:01:49;;;;;;;;;;;21.40;74.70;;;;;;5114426;28;19923;-65
2023/08/20 03:04:14;;;;;;;;;;;21.40;74.70;;;;;;5096550;28;19920;-65
2023/08/20 03:06:40;;;;;;;;;;;21.40;74.70;;;;;;5096042;28;20378;-65
2023/08/20 03:09:05;;;;;;;;;;;21.40;74.60;;;;;;5114525;28;19924;-69
2023/08/20 03:11:31;;;;;;;;;;;21.40;74.60;;;;;;5095535;28;19927;-65
2023/08/20 03:13:56;;;;;;;;;;;21.40;74.60;;;;;;5096315;28;20018;-66
2023/08/20 03:16:22;;;;;;;;;;;21.40;74.60;;;;;;5095866;28;19924;-65
2023/08/20 03:18:48;;;;;;;;;;;21.40;74.60;;;;;;5095897;28;20281;-65
2023/08/20 03:21:13;;;;;;;;;;;21.30;74.50;;;;;;5114321;28;20291;-65
2023/08/20 03:23:39;;;;;;;;;;;21.40;74.60;;;;;;5095985;28;19928;-65
2023/08/20 03:26:04;;;;;;;;;;;21.30;74.50;;;;;;5095880;28;19919;-65
2023/08/20 03:28:29;;;;;;;;;;;21.30;74.50;;;;;;5095752;28;19927;-65
2023/08/20 03:30:59;;;;;;;;;;;21.40;74.60;;;;;;5113835;28;19977;-65
2023/08/20 03:33:24;;;;;;;;;;;21.30;74.50;;;;;;5095950;28;20378;-65
2023/08/20 03:35:49;;;;;;;;;;;21.30;74.50;;;;;;5095806;28;19930;-65
2023/08/20 03:38:15;;;;;;;;;;;21.30;74.50;;;;;;5095838;28;19923;-65
2023/08/20 03:40:40;;;;;;;;;;;21.30;74.50;;;;;;5095767;28;19990;-65
2023/08/20 03:43:06;;;;;;;;;;;21.30;74.50;;;;;;5095722;28;19966;-65
2023/08/20 03:45:31;;;;;;;;;;;21.30;74.50;;;;;;5095278;28;19924;-65
2023/08/20 03:47:57;;;;;;;;;;;21.30;74.50;;;;;;5113449;28;19920;-65
2023/08/20 03:50:22;;;;;;;;;;;21.30;74.50;;;;;;5095677;28;19920;-65
2023/08/20 03:52:48;;;;;;;;;;;21.30;74.50;;;;;;5095511;28;20290;-70
2023/08/20 03:55:13;;;;;;;;;;;21.30;74.50;;;;;;5094704;28;19927;-66
2023/08/20 03:57:39;;;;;;;;;;;21.30;74.50;;;;;;5095184;28;20031;-65
2023/08/20 04:00:08;;;;;;;;;;;21.30;74.50;;;;;;5095222;28;19920;-65
2023/08/20 04:02:33;;;;;;;;;;;21.30;74.50;;;;;;5095219;28;19927;-65
2023/08/20 04:04:59;;;;;;;;;;;21.30;74.50;;;;;;5113499;28;19930;-66
2023/08/20 04:07:24;;;;;;;;;;;21.30;74.50;;;;;;5094940;28;19920;-65
2023/08/20 04:09:50;;;;;;;;;;;21.30;74.50;;;;;;5113225;28;19919;-65
2023/08/20 04:12:15;;;;;;;;;;;21.20;74.50;;;;;;5094440;28;20276;-70
2023/08/20 04:14:41;;;;;;;;;;;21.30;74.50;;;;;;5095211;28;19919;-65
2023/08/20 04:17:06;;;;;;;;;;;21.30;74.50;;;;;;5094840;28;19958;-69
2023/08/20 04:19:32;;;;;;;;;;;21.30;74.50;;;;;;5095006;28;19980;-65
2023/08/20 04:21:57;;;;;;;;;;;21.30;74.50;;;;;;5094934;28;19920;-65
2023/08/20 04:24:23;;;;;;;;;;;21.20;74.50;;;;;;5113215;28;20018;-70
2023/08/20 04:26:48;;;;;;;;;;;21.20;75.30;;;;;;5094897;28;19923;-70
2023/08/20 04:29:14;;;;;;;;;;;21.20;74.50;;;;;;5112993;28;20298;-65
2023/08/20 04:31:39;;;;;;;;;;;21.20;74.50;;;;;;5095098;28;20064;-65
2023/08/20 04:34:05;;;;;;;;;;;21.20;74.50;;;;;;5112888;28;19920;-65
2023/08/20 04:36:30;;;;;;;;;;;21.20;74.50;;;;;;5094674;28;19926;-65
2023/08/20 04:38:55;;;;;;;;;;;21.20;74.50;;;;;;5095081;28;20385;-66
2023/08/20 04:41:21;;;;;;;;;;;21.20;74.40;;;;;;5094931;28;19920;-65
2023/08/20 04:43:46;;;;;;;;;;;21.20;74.50;;;;;;5094510;28;20467;-65
2023/08/20 04:46:12;;;;;;;;;;;21.20;74.50;;;;;;5094245;28;19923;-65
2023/08/20 04:48:38;;;;;;;;;;;21.20;74.50;;;;;;5094479;28;20293;-65
2023/08/20 04:51:04;;;;;;;;;;;21.20;74.50;;;;;;5094732;28;19919;-65
2023/08/20 04:53:30;;;;;;;;;;;21.20;74.50;;;;;;5112686;28;19920;-65
2023/08/20 04:55:56;;;;;;;;;;;21.20;74.40;;;;;;5112749;28;20027;-65
2023/08/20 04:58:22;;;;;;;;;;;21.20;74.40;;;;;;5094620;28;19947;-66
2023/08/20 05:00:47;;;;;;;;;;;21.20;74.40;;;;;;5094453;28;19919;-65
2023/08/20 05:03:13;;;;;;;;;;;21.20;74.40;;;;;;5094260;28;19973;-66
2023/08/20 05:05:38;;;;;;;;;;;21.20;74.50;;;;;;5094395;28;19946;-65
2023/08/20 05:08:04;;;;;;;;;;;21.20;74.40;;;;;;5115988;28;20177;-65
2023/08/20 05:10:29;;;;;;;;;;;21.20;74.40;;;;;;5116873;28;19930;-70
2023/08/20 05:12:55;;;;;;;;;;;21.20;74.40;;;;;;5116805;28;19927;-70
2023/08/20 05:15:21;;;;;;;;;;;21.20;74.40;;;;;;5116629;28;19920;-65
2023/08/20 05:17:46;;;;;;;;;;;21.20;74.40;;;;;;5116610;28;19920;-65
2023/08/20 05:20:12;;;;;;;;;;;21.20;74.40;;;;;;5098463;28;19919;-65
2023/08/20 05:22:37;;;;;;;;;;;21.10;74.30;;;;;;5098530;28;19971;-65
2023/08/20 05:25:03;;;;;;;;;;;21.20;74.30;;;;;;5116554;28;19927;-65
2023/08/20 05:27:28;;;;;;;;;;;21.10;74.30;;;;;;5098386;28;19927;-65
2023/08/20 05:29:54;;;;;;;;;;;21.20;74.30;;;;;;5098252;28;19919;-65
2023/08/20 05:32:19;;;;;;;;;;;21.20;74.40;;;;;;5098107;28;20386;-65
2023/08/20 05:34:45;;;;;;;;;;;21.10;74.30;;;;;;5116226;28;19919;-65
2023/08/20 05:37:10;;;;;;;;;;;21.10;74.30;;;;;;5116115;28;19965;-65
2023/08/20 05:39:36;;;;;;;;;;;21.20;74.40;;;;;;5116158;28;19924;-65
2023/08/20 05:42:02;;;;;;;;;;;21.20;74.40;;;;;;5098182;28;20271;-66
2023/08/20 05:44:27;;;;;;;;;;;21.10;74.30;;;;;;5097609;28;19941;-65
2023/08/20 05:46:53;;;;;;;;;;;21.20;74.40;;;;;;5097661;28;19927;-66
2023/08/20 05:49:18;;;;;;;;;;;21.10;74.30;;;;;;5097667;28;19920;-65
2023/08/20 05:51:44;;;;;;;;;;;21.10;74.30;;;;;;5131987;27;20019;-65
2023/08/20 05:54:10;;;;;;;;;;;21.10;74.30;;;;;;5097934;28;19931;-65
2023/08/20 05:56:36;;;;;;;;;;;21.10;74.40;;;;;;5097736;28;20014;-65
2023/08/20 05:59:01;;;;;;;;;;;21.10;74.40;;;;;;5097795;28;20010;-70
2023/08/20 06:01:27;;;;;;;;;;;21.10;74.40;;;;;;5131607;27;19969;-65
2023/08/20 06:03:52;;;;;;;;;;;21.10;74.30;;;;;;5097744;28;19972;-70
2023/08/20 06:06:18;;;;;;;;;;;21.10;74.30;;;;;;5080442;28;19924;-65
2023/08/20 06:08:43;;;;;;;;;;;21.10;74.30;;;;;;5097307;28;19926;-66
2023/08/20 06:11:09;;;;;;;;;;;21.10;74.40;;;;;;5097272;28;19919;-65
2023/08/20 06:13:34;;;;;;;;;;;21.10;74.40;;;;;;5115545;28;20019;-65
2023/08/20 06:15:59;;;;;;;;;;;21.10;74.40;;;;;;5097206;28;20335;-65
2023/08/20 06:18:25;;;;;;;;;;;21.10;74.30;;;;;;5115109;28;19974;-65
2023/08/20 06:20:50;;;;;;;;;;;21.10;74.30;;;;;;5115416;28;19924;-65
2023/08/20 06:23:16;;;;;;;;;;;21.10;74.40;;;;;;5097374;28;20365;-65
2023/08/20 06:25:41;;;;;;;;;;;21.10;74.30;;;;;;5115252;28;19949;-65
2023/08/20 06:28:08;;;;;;;;;;;21.10;74.40;;;;;;5097525;28;20390;-65
2023/08/20 06:30:33;;;;;;;;;;;21.10;74.30;;;;;;5097016;28;19923;-65
2023/08/20 06:32:59;;;;;;;;;;;21.10;74.30;;;;;;5097124;28;19930;-66
2023/08/20 06:35:25;;;;;;;;;;;21.10;74.30;;;;;;5115108;28;19919;-65
2023/08/20 06:37:50;;;;;;;;;;;21.10;74.40;;;;;;5097059;28;19927;-70
2023/08/20 06:40:16;;;;;;;;;;;21.00;74.30;;;;;;5114986;28;19927;-65
2023/08/20 06:42:41;;;;;;;;;;;21.10;74.30;;;;;;5115097;28;19924;-65
2023/08/20 06:45:08;;;;;;;;;;;21.10;74.30;;;;;;5114691;28;19924;-65
2023/08/20 06:47:33;;;;;;;;;;;21.10;74.30;;;;;;5114825;28;19930;-65
2023/08/20 06:49:59;;;;;;;;;;;21.10;74.40;;;;;;5096928;28;20298;-65
2023/08/20 06:52:24;;;;;;;;;;;21.10;74.30;;;;;;5114750;28;19923;-66
2023/08/20 06:54:50;;;;;;;;;;;21.10;74.30;;;;;;5096461;28;20007;-66
2023/08/20 06:57:15;;;;;;;;;;;21.10;74.30;;;;;;5114864;28;19920;-66
2023/08/20 06:59:42;;;;;;;;;;;21.10;74.40;;;;;;5096697;28;19928;-66
2023/08/20 07:02:08;;;;;;;;;;;21.10;74.30;;;;;;5114440;28;20268;-66
2023/08/20 07:04:33;;;;;;;;;;;21.10;74.30;;;;;;5114493;28;20010;-65
2023/08/20 07:06:59;;;;;;;;;;;21.10;74.30;;;;;;5096152;28;19927;-65
2023/08/20 07:09:24;;;;;;;;;;;21.10;74.30;;;;;;5096308;28;19927;-66
2023/08/20 07:11:50;;;;;;;;;;;21.10;74.30;;;;;;5096372;28;19923;-65
2023/08/20 07:14:15;;;;;;;;;;;21.10;74.30;;;;;;5130528;27;19927;-66
2023/08/20 07:16:41;;;;;;;;;;;21.10;74.30;;;;;;5095999;28;19927;-66
2023/08/20 07:19:06;;;;;;;;;;;21.10;74.30;;;;;;5114279;28;19920;-65
2023/08/20 07:21:31;;;;;;;;;;;21.10;74.30;;;;;;5096204;28;19965;-65
2023/08/20 07:23:57;;;;;;;;;;;21.10;74.30;;;;;;5114113;28;19959;-65
2023/08/20 07:26:23;;;;;;;;;;;21.10;74.30;;;;;;5113976;28;19923;-65
2023/08/20 07:29:03;;;;;;;;;;;21.10;74.30;;;;;;5095605;28;19919;-65
2023/08/20 07:31:30;;;;;;;;;;;21.10;74.30;;;;;;5095536;28;19963;-65
2023/08/20 07:33:56;;;;;;;;;;;21.10;74.30;;;;;;5095656;28;19919;-66
2023/08/20 07:36:22;;;;;;;;;;;21.10;74.30;;;;;;5130084;27;20002;-65
2023/08/20 07:38:48;;;;;;;;;;;21.10;74.30;;;;;;5095751;28;20329;-65
2023/08/20 07:41:14;;;;;;;;;;;21.10;74.30;;;;;;5113762;28;19920;-65
2023/08/20 07:43:40;;;;;;;;;;;21.10;74.30;;;;;;5095415;28;19985;-65
2023/08/20 07:46:06;;;;;;;;;;;21.10;74.30;;;;;;5113470;28;19954;-65
2023/08/20 07:48:32;;;;;;;;;;;21.10;74.30;;;;;;5113616;28;19955;-65
2023/08/20 07:50:58;;;;;;;;;;;21.10;74.30;;;;;;5095332;28;20395;-65
2023/08/20 07:53:23;;;;;;;;;;;21.10;74.30;;;;;;5113563;28;20332;-69
2023/08/20 07:55:49;;;;;;;;;;;21.10;74.30;;;;;;5095160;28;19927;-69
2023/08/20 07:58:14;;;;;;;;;;;21.10;74.30;;;;;;5095250;28;19920;-65
2023/08/20 08:00:40;;;;;;;;;;;21.10;74.20;;;;;;5095449;28;19931;-66
2023/08/20 08:03:05;;;;;;;;;;;21.10;74.20;;;;;;5095049;28;19920;-65
2023/08/20 08:05:31;;;;;;;;;;;21.10;74.20;;;;;;5113220;28;19924;-65
2023/08/20 08:07:57;;;;;;;;;;;21.10;74.20;;;;;;5095605;28;19920;-66
2023/08/20 08:10:22;;;;;;;;;;;21.10;74.20;;;;;;5113175;28;19931;-68
2023/08/20 08:12:48;;;;;;;;;;;21.20;74.30;;;;;;5095433;28;20017;-65
2023/08/20 08:15:13;;;;;;;;;;;21.10;74.20;;;;;;5095268;28;20291;-66
2023/08/20 08:17:39;;;;;;;;;;;21.10;74.20;;;;;;5094177;28;20389;-65
2023/08/20 08:20:05;;;;;;;;;;;21.10;74.20;;;;;;5113047;28;19942;-65
2023/08/20 08:22:31;;;;;;;;;;;21.10;74.10;;;;;;5095384;28;20358;-65
2023/08/20 08:24:56;;;;;;;;;;;21.10;74.10;;;;;;5113000;28;20011;-65
2023/08/20 08:27:21;;;;;;;;;;;21.10;74.10;;;;;;5094770;28;19920;-65
2023/08/20 08:29:47;;;;;;;;;;;21.20;74.20;;;;;;5095095;28;19920;-65
2023/08/20 08:32:13;;;;;;;;;;;21.20;74.20;;;;;;5113099;28;19978;-65
2023/08/20 08:34:38;;;;;;;;;;;21.10;74.10;;;;;;5094771;28;19920;-65
2023/08/20 08:37:04;;;;;;;;;;;21.20;74.20;;;;;;5094934;28;19920;-65
2023/08/20 08:39:29;;;;;;;;;;;21.20;74.10;;;;;;5094990;28;19923;-65
2023/08/20 08:41:59;;;;;;;;;;;21.10;74.10;;;;;;5112567;28;19920;-65
2023/08/20 08:44:25;;;;;;;;;;;21.10;74.10;;;;;;5112621;28;19919;-65
2023/08/20 08:46:51;;;;;;;;;;;21.20;74.10;;;;;;5112620;28;19923;-68
2023/08/20 08:49:16;;;;;;;;;;;21.10;74.00;;;;;;5094579;28;19924;-65
2023/08/20 08:51:44;;;;;;;;;;;21.20;74.10;;;;;;5094798;28;19920;-65
2023/08/20 08:54:10;;;;;;;;;;;21.20;74.00;;;;;;5094570;28;20473;-65
2023/08/20 08:56:35;;;;;;;;;;;21.20;74.10;;;;;;5112619;28;20014;-65
2023/08/20 08:59:01;;;;;;;;;;;21.10;73.90;;;;;;5094749;28;19928;-65
2023/08/20 09:01:26;;;;;;;;;;;21.20;73.90;;;;;;5094674;28;19927;-65
2023/08/20 09:03:51;;;;;;;;;;;21.20;73.90;;;;;;5094418;28;19926;-65
2023/08/20 09:06:17;;;;;;;;;;;21.20;73.80;;;;;;5094449;28;20100;-66
2023/08/20 09:08:42;;;;;;;;;;;21.20;73.80;;;;;;5112541;28;20015;-65
2023/08/20 09:11:08;;;;;;;;;;;21.20;73.80;;;;;;5094394;28;19920;-69
2023/08/20 09:16:14;;;;;;;;;;;21.20;73.80;;;;;;5109460;27;19944;-65
2023/08/20 09:18:40;;;;;;;;;;;21.20;73.70;;;;;;5109229;28;19920;-65
2023/08/20 09:21:08;;;;;;;;;;;21.20;73.70;;;;;;5109217;28;20295;-65
2023/08/20 09:23:34;;;;;;;;;;;21.20;73.60;;;;;;5109211;28;20111;-69
2023/08/20 09:26:01;;;;;;;;;;;21.20;73.60;;;;;;5108825;28;20081;-65
2023/08/20 09:28:26;;;;;;;;;;;21.20;73.60;;;;;;5108991;28;19934;-65
2023/08/20 09:31:02;;;;;;;;;;;21.30;73.70;;;;;;5108737;28;19920;-65
2023/08/20 09:33:28;;;;;;;;;;;21.30;73.70;;;;;;5109043;28;19920;-65
2023/08/20 09:35:54;;;;;;;;;;;21.20;73.60;;;;;;5108621;28;20418;-65
2023/08/20 09:38:21;;;;;;;;;;;21.30;73.60;;;;;;5109926;28;19924;-65
2023/08/20 09:40:49;;;;;;;;;;;21.30;73.60;;;;;;5109773;28;20050;-65
2023/08/20 09:43:16;;;;;;;;;;;21.30;74.30;;;;;;5110161;28;19927;-66
2023/08/20 09:45:42;;;;;;;;;;;21.30;73.40;;;;;;5108524;28;19920;-65
2023/08/20 09:48:09;;;;;;;;;;;21.30;73.40;;;;;;5108704;28;20260;-65
2023/08/20 09:50:36;;;;;;;;;;;21.30;73.30;;;;;;5108316;28;20368;-65
2023/08/20 09:53:06;;;;;;;;;;;21.40;73.40;;;;;;5108559;28;19927;-65
2023/08/20 09:55:34;;;;;;;;;;;21.40;73.30;;;;;;5108264;28;19989;-65
2023/08/20 09:58:01;;;;;;;;;;;21.40;73.30;;;;;;5108520;28;20360;-65
2023/08/20 10:00:27;;;;;;;;;;;21.40;73.30;;;;;;5109711;28;20336;-65
2023/08/20 10:02:52;;;;;;;;;;;21.40;73.20;;;;;;5109458;28;20401;-64
2023/08/20 10:05:20;;;;;;;;;;;21.40;73.20;;;;;;5108090;28;19920;-65
2023/08/20 10:07:46;;;;;;;;;;;21.40;73.10;;;;;;5108365;28;20284;-65
2023/08/20 10:10:13;;;;;;;;;;;21.50;73.20;;;;;;5109190;28;19924;-65
2023/08/20 10:12:39;;;;;;;;;;;21.50;73.10;;;;;;5109304;28;19989;-65
2023/08/20 10:15:05;;;;;;;;;;;21.50;73.10;;;;;;5107660;28;20392;-65
2023/08/20 10:17:32;;;;;;;;;;;21.50;73.10;;;;;;5108126;28;20004;-65
2023/08/20 10:19:58;;;;;;;;;;;21.50;73.10;;;;;;5107799;28;19927;-65
2023/08/20 10:22:31;;;;;;;;;;;21.60;73.10;;;;;;5107836;28;19920;-65
2023/08/20 10:24:59;;;;;;;;;;;21.50;73.00;;;;;;5107908;28;19950;-69
2023/08/20 10:27:26;;;;;;;;;;;21.50;73.00;;;;;;5096293;28;19920;-65
2023/08/20 10:29:53;;;;;;;;;;;21.50;73.00;;;;;;5094319;28;20399;-65
2023/08/20 10:32:19;;;;;;;;;;;21.50;73.00;;;;;;5094035;28;20367;-65
2023/08/20 10:34:49;;;;;;;;;;;21.50;72.90;;;;;;5093938;28;20010;-65
2023/08/20 10:37:15;;;;;;;;;;;21.50;73.00;;;;;;5094328;28;20007;-65
2023/08/20 10:39:42;;;;;;;;;;;21.50;72.90;;;;;;5095007;28;20010;-65
2023/08/20 10:42:11;;;;;;;;;;;21.50;73.00;;;;;;5095107;28;20359;-65
2023/08/20 10:44:56;;;;;;;;;;;21.50;72.90;;;;;;5094054;28;20307;-65
2023/08/20 10:47:22;;;;;;;;;;;21.50;72.90;;;;;;5093893;28;19963;-65
2023/08/20 10:49:52;;;;;;;;;;;21.50;72.90;;;;;;5093656;28;20220;-65
2023/08/20 10:52:18;;;;;;;;;;;21.50;72.90;;;;;;5094127;28;19920;-65
2023/08/20 10:54:43;;;;;;;;;;;21.50;73.00;;;;;;5093647;28;20297;-65
2023/08/20 10:57:09;;;;;;;;;;;21.50;73.00;;;;;;5094985;28;19920;-65
2023/08/20 10:59:39;;;;;;;;;;;21.60;73.00;;;;;;5093778;28;19924;-65
2023/08/20 11:02:07;;;;;;;;;;;21.50;73.00;;;;;;5093345;28;19920;-65
2023/08/20 11:04:33;;;;;;;;;;;21.50;73.00;;;;;;5093787;28;20011;-65
2023/08/20 11:06:59;;;;;;;;;;;21.50;73.00;;;;;;5093445;28;20018;-69
2023/08/20 11:09:25;;;;;;;;;;;21.50;73.00;;;;;;5093608;28;20252;-65
2023/08/20 11:11:51;;;;;;;;;;;21.50;73.10;;;;;;5093851;28;19943;-65
2023/08/20 11:14:18;;;;;;;;;;;21.50;73.10;;;;;;5092930;28;20367;-66
2023/08/20 11:16:44;;;;;;;;;;;21.50;73.00;;;;;;5094390;28;19927;-68
2023/08/20 11:19:10;;;;;;;;;;;21.50;73.00;;;;;;5093401;28;19920;-66
2023/08/20 11:21:38;;;;;;;;;;;21.50;73.10;;;;;;5094299;28;19924;-65
2023/08/20 11:24:04;;;;;;;;;;;21.50;73.10;;;;;;5093338;28;20296;-65
2023/08/20 11:26:30;;;;;;;;;;;21.50;73.10;;;;;;5093228;28;19920;-65
2023/08/20 11:28:55;;;;;;;;;;;21.50;73.10;;;;;;5092904;28;20018;-65
2023/08/20 11:31:21;;;;;;;;;;;21.50;73.10;;;;;;5092804;28;19924;-65
2023/08/20 11:33:48;;;;;;;;;;;21.50;73.10;;;;;;5094072;28;19921;-65
2023/08/20 11:36:15;;;;;;;;;;;21.50;73.20;;;;;;5092913;28;20398;-65
2023/08/20 11:38:41;;;;;;;;;;;21.50;73.20;;;;;;5091748;28;20403;-65
2023/08/20 11:41:06;;;;;;;;;;;21.50;73.20;;;;;;5092960;28;19930;-65
2023/08/20 11:43:32;;;;;;;;;;;21.50;73.20;;;;;;5093953;28;19977;-65
2023/08/20 11:45:57;;;;;;;;;;;21.50;73.20;;;;;;5093916;28;19943;-65
2023/08/20 11:48:23;;;;;;;;;;;21.50;73.20;;;;;;5092773;28;20294;-68
2023/08/20 11:50:50;;;;;;;;;;;21.50;73.20;;;;;;5092525;28;19928;-65
2023/08/20 11:53:20;;;;;;;;;;;21.50;73.20;;;;;;5093664;28;19931;-65
2023/08/20 11:55:45;;;;;;;;;;;21.50;73.20;;;;;;5092379;28;20593;-65
2023/08/20 11:58:12;;;;;;;;;;;21.50;73.20;;;;;;5092538;28;20011;-69
2023/08/20 12:00:38;;;;;;;;;;;21.60;73.30;;;;;;5093584;28;19920;-66
2023/08/20 12:03:03;;;;;;;;;;;21.60;73.40;;;;;;5092458;28;20440;-65
2023/08/20 12:05:29;;;;;;;;;;;21.60;73.30;;;;;;5093508;28;20397;-65
2023/08/20 12:07:56;;;;;;;;;;;21.50;73.30;;;;;;5092003;28;19924;-65
2023/08/20 12:10:22;;;;;;;;;;;21.50;73.30;;;;;;5092491;28;19966;-65
2023/08/20 12:12:48;;;;;;;;;;;21.50;73.30;;;;;;5092190;28;20387;-65
2023/08/20 12:15:14;;;;;;;;;;;21.50;73.30;;;;;;5105438;28;19924;-65
2023/08/20 12:17:39;;;;;;;;;;;21.50;73.40;;;;;;5113609;28;20378;-66
2023/08/20 12:20:12;;;;;;;;;;;21.50;73.30;;;;;;5113487;28;19926;-65
2023/08/20 12:22:38;;;;;;;;;;;21.60;73.40;;;;;;5113379;28;20416;-65
2023/08/20 12:25:04;;;;;;;;;;;21.60;73.50;;;;;;5095213;28;19919;-65
2023/08/20 12:27:29;;;;;;;;;;;21.50;73.30;;;;;;5113404;28;19926;-69
2023/08/20 12:29:55;;;;;;;;;;;21.60;73.50;;;;;;5095373;28;20348;-65
2023/08/20 12:32:20;;;;;;;;;;;21.60;73.40;;;;;;5129457;27;19927;-65
2023/08/20 12:34:46;;;;;;;;;;;21.60;73.40;;;;;;5095148;28;19971;-65
2023/08/20 12:37:11;;;;;;;;;;;21.60;73.40;;;;;;5094973;28;19927;-65
2023/08/20 12:39:37;;;;;;;;;;;21.60;73.40;;;;;;5129332;27;19972;-65
2023/08/20 12:42:02;;;;;;;;;;;21.60;73.50;;;;;;5095111;28;19920;-65
2023/08/20 12:44:28;;;;;;;;;;;21.60;73.50;;;;;;5095086;28;19920;-65
2023/08/20 12:46:53;;;;;;;;;;;21.60;73.50;;;;;;5113154;28;19996;-65
2023/08/20 12:49:19;;;;;;;;;;;21.60;74.20;;;;;;5112883;28;19953;-65
2023/08/20 12:51:44;;;;;;;;;;;21.60;73.50;;;;;;5094745;28;19920;-65
2023/08/20 12:54:10;;;;;;;;;;;21.60;73.50;;;;;;5094622;28;19953;-65
2023/08/20 12:56:35;;;;;;;;;;;21.60;73.50;;;;;;5113183;28;20006;-65
2023/08/20 12:59:01;;;;;;;;;;;21.60;73.50;;;;;;5094901;28;19926;-65
2023/08/20 13:01:26;;;;;;;;;;;21.60;73.50;;;;;;5128778;27;19920;-65
2023/08/20 13:03:52;;;;;;;;;;;21.60;73.50;;;;;;5094894;28;20018;-65
2023/08/20 13:06:17;;;;;;;;;;;21.60;73.50;;;;;;5094595;28;20016;-65
2023/08/20 13:08:44;;;;;;;;;;;21.60;73.50;;;;;;5094598;28;20353;-65
2023/08/20 13:11:10;;;;;;;;;;;21.70;73.60;;;;;;5094728;28;19926;-65
2023/08/20 13:13:36;;;;;;;;;;;21.60;73.50;;;;;;5093843;28;19924;-65
2023/08/20 13:16:02;;;;;;;;;;;21.70;73.60;;;;;;5112286;28;20004;-65
2023/08/20 13:18:28;;;;;;;;;;;21.60;73.50;;;;;;5094807;28;20405;-65
2023/08/20 13:20:54;;;;;;;;;;;21.70;73.60;;;;;;5112654;28;20022;-65
2023/08/20 13:23:19;;;;;;;;;;;21.70;73.70;;;;;;5094991;28;19920;-65
2023/08/20 13:25:45;;;;;;;;;;;21.70;73.70;;;;;;5094395;28;20451;-65
2023/08/20 13:28:10;;;;;;;;;;;21.70;73.70;;;;;;5094666;28;19923;-65
2023/08/20 13:30:36;;;;;;;;;;;21.70;73.60;;;;;;5094345;28;19924;-65
2023/08/20 13:33:03;;;;;;;;;;;21.70;73.60;;;;;;5112652;28;19920;-65
2023/08/20 13:35:28;;;;;;;;;;;21.70;73.60;;;;;;5094361;28;19959;-65
2023/08/20 13:37:54;;;;;;;;;;;21.70;73.60;;;;;;5094539;28;19963;-65
2023/08/20 13:40:19;;;;;;;;;;;21.70;73.60;;;;;;5094477;28;19920;-69
2023/08/20 13:42:45;;;;;;;;;;;21.70;73.60;;;;;;5112878;28;20006;-69
2023/08/20 13:45:10;;;;;;;;;;;21.70;73.60;;;;;;5112544;28;20277;-69
2023/08/20 13:47:36;;;;;;;;;;;21.70;73.60;;;;;;5094126;28;19973;-65
2023/08/20 13:50:04;;;;;;;;;;;21.70;73.60;;;;;;5112542;28;20270;-65
2023/08/20 13:52:30;;;;;;;;;;;21.70;73.60;;;;;;5094489;28;20289;-65
2023/08/20 13:54:55;;;;;;;;;;;21.70;73.50;;;;;;5094051;28;20014;-65
2023/08/20 13:57:21;;;;;;;;;;;21.70;73.50;;;;;;5094083;28;19981;-65
2023/08/20 13:59:46;;;;;;;;;;;21.70;73.50;;;;;;5112387;28;19926;-65
2023/08/20 14:02:12;;;;;;;;;;;21.70;73.50;;;;;;5096452;28;19920;-69
2023/08/20 14:04:37;;;;;;;;;;;21.80;73.60;;;;;;5116185;28;19927;-65
2023/08/20 14:07:03;;;;;;;;;;;21.70;73.50;;;;;;5116566;28;19926;-65
2023/08/20 14:09:28;;;;;;;;;;;21.80;73.60;;;;;;5098144;28;19920;-68
2023/08/20 14:11:54;;;;;;;;;;;21.80;73.60;;;;;;5132104;27;20374;-65